Terminal Aerodrome Forecast
Issued by NWS

Home | Current Version | Previous Version | Text Only | Print | Product List | Glossary On
Versions: 1 2 3 4 5 6 7 8 9 10 11 12 13 14 15 16 17
597
FTUS43 KAPX 211133
TAFTVC
TAF
KTVC 211133Z 2112/2212 22011G20KT P6SM BKN120 WS020/21040KT
     FM211300 25011G20KT P6SM BKN070 WS020/23040KT
     FM211600 27013G22KT P6SM BKN040
     FM211800 29014G23KT 3SM -SHRASN BKN035
     FM212100 30013G22KT 3SM -SHSN OVC035
     FM220000 32011G24KT P6SM VCSH BKN040=

USA.gov is the U.S. government's official web portal to all federal, state and local government web resources and services.